createdAt,value
2022-12-17T00:01:58.435Z,70.81
2022-12-17T00:04:44.947Z,70.90
2022-12-17T00:07:31.808Z,70.84
2022-12-17T00:10:17.949Z,70.76
2022-12-17T00:13:06.213Z,70.85
2022-12-17T00:15:53.061Z,70.69
2022-12-17T00:18:40.727Z,70.63
2022-12-17T00:21:28.006Z,70.83
2022-12-17T00:24:14.428Z,70.67
2022-12-17T00:27:00.268Z,70.68
2022-12-17T00:29:46.624Z,70.74
2022-12-17T00:32:32.697Z,70.64
2022-12-17T00:35:20.588Z,70.64
2022-12-17T00:38:06.412Z,70.42
2022-12-17T00:40:52.719Z,70.43
2022-12-17T00:43:40.063Z,70.52
2022-12-17T00:46:26.327Z,70.35
2022-12-17T00:49:12.498Z,70.36
2022-12-17T00:52:00.056Z,70.33
2022-12-17T00:54:45.755Z,70.44
2022-12-17T00:57:32.011Z,70.39
2022-12-17T01:00:17.766Z,70.19
2022-12-17T01:03:04.927Z,70.24
2022-12-17T01:05:50.686Z,70.25
2022-12-17T01:08:38.671Z,70.19
2022-12-17T01:11:26.395Z,70.26
2022-12-17T01:14:12.744Z,70.15
2022-12-17T01:16:58.698Z,70.04
2022-12-17T01:19:45.081Z,70.14
2022-12-17T01:22:31.502Z,70.11
2022-12-17T01:25:20.517Z,70.10
2022-12-17T01:28:07.352Z,70.09
2022-12-17T01:30:55.665Z,70.07
2022-12-17T01:33:41.570Z,70.08
2022-12-17T01:36:28.337Z,70.18
2022-12-17T01:39:23.658Z,70.18
2022-12-17T01:42:11.768Z,70.11
2022-12-17T01:45:11.356Z,69.98
2022-12-17T01:48:00.747Z,70.02
2022-12-17T01:50:50.265Z,69.98
2022-12-17T01:53:41.520Z,70.00
2022-12-17T01:56:28.703Z,70.17
2022-12-17T01:59:17.182Z,70.07
2022-12-17T02:02:03.772Z,70.10
2022-12-17T02:04:50.526Z,70.08
2022-12-17T02:07:52.980Z,70.14
2022-12-17T02:10:44.838Z,70.16
2022-12-17T02:13:37.419Z,70.18
2022-12-17T02:16:28.941Z,70.19
2022-12-17T02:19:18.830Z,70.18
2022-12-17T02:22:27.307Z,70.27
2022-12-17T02:25:21.423Z,70.20
2022-12-17T02:28:20.605Z,70.13
2022-12-17T02:31:06.816Z,70.32
2022-12-17T02:33:50.370Z,69.99
2022-12-17T02:36:36.166Z,70.14
2022-12-17T02:39:28.552Z,70.11
2022-12-17T02:42:16.342Z,69.99
2022-12-17T02:45:05.119Z,70.10
2022-12-17T02:47:51.479Z,70.02
2022-12-17T02:50:37.378Z,70.24
2022-12-17T02:53:23.200Z,70.28
2022-12-17T02:56:09.517Z,70.22
2022-12-17T02:58:57.219Z,70.16
2022-12-17T03:01:44.576Z,70.30
2022-12-17T03:04:31.106Z,70.33
2022-12-17T03:07:16.977Z,70.21
2022-12-17T03:10:02.753Z,70.18
2022-12-17T03:12:51.545Z,70.12
2022-12-17T03:15:37.557Z,70.13
2022-12-17T03:18:24.823Z,69.99
2022-12-17T03:21:12.257Z,70.11
2022-12-17T03:24:10.301Z,70.02
2022-12-17T03:26:56.901Z,70.19
2022-12-17T03:29:42.933Z,70.09
2022-12-17T03:32:29.401Z,70.03
2022-12-17T03:35:16.893Z,69.93
2022-12-17T03:38:03.678Z,69.96
2022-12-17T03:40:49.515Z,69.92
2022-12-17T03:43:37.091Z,70.07
2022-12-17T03:46:23.373Z,69.97
2022-12-17T03:49:09.841Z,69.99
2022-12-17T03:51:57.254Z,70.03
2022-12-17T03:54:44.162Z,69.99
2022-12-17T03:57:30.180Z,69.89
2022-12-17T04:00:16.769Z,69.93
2022-12-17T04:03:02.656Z,70.01
2022-12-17T04:05:49.129Z,69.97
2022-12-17T04:08:36.718Z,69.90
2022-12-17T04:11:38.274Z,69.79
2022-12-17T04:14:24.543Z,69.81
2022-12-17T04:17:11.232Z,69.82
2022-12-17T04:20:11.975Z,69.88
2022-12-17T04:22:57.922Z,69.79
2022-12-17T04:25:46.288Z,69.79
2022-12-17T04:28:32.681Z,69.82
2022-12-17T04:31:18.923Z,69.72
2022-12-17T04:34:05.417Z,69.66
2022-12-17T04:36:51.682Z,69.83
2022-12-17T04:39:38.206Z,69.92
2022-12-17T04:42:25.611Z,69.97
2022-12-17T04:45:11.337Z,69.76
2022-12-17T04:47:57.302Z,69.90
2022-12-17T04:50:43.588Z,69.94
2022-12-17T04:53:30.220Z,69.96
2022-12-17T04:56:16.270Z,69.94
2022-12-17T04:59:05.698Z,69.93
2022-12-17T05:01:52.090Z,69.86
2022-12-17T05:04:37.985Z,69.89
2022-12-17T05:07:24.786Z,69.99
2022-12-17T05:10:10.885Z,69.86
2022-12-17T05:12:56.824Z,69.91
2022-12-17T05:15:49.753Z,69.96
2022-12-17T05:18:39.592Z,69.88
2022-12-17T05:21:28.111Z,69.76
2022-12-17T05:24:18.216Z,69.88
2022-12-17T05:27:04.461Z,69.69
2022-12-17T05:29:50.893Z,69.71
2022-12-17T05:32:38.274Z,69.89
2022-12-17T05:35:25.737Z,69.55
2022-12-17T05:38:11.995Z,69.56
2022-12-17T05:40:58.108Z,69.40
2022-12-17T05:43:43.837Z,69.47
2022-12-17T05:46:30.230Z,69.52
2022-12-17T05:49:17.310Z,69.51
2022-12-17T05:52:03.547Z,69.41
2022-12-17T05:54:49.636Z,69.46
2022-12-17T05:57:36.465Z,69.44
2022-12-17T06:00:23.178Z,69.31
2022-12-17T06:03:24.656Z,69.27
2022-12-17T06:06:14.942Z,69.23
2022-12-17T06:09:01.310Z,69.26
2022-12-17T06:11:47.085Z,69.15
2022-12-17T06:14:33.830Z,69.24
2022-12-17T06:17:20.051Z,69.29
2022-12-17T06:20:06.248Z,69.36
2022-12-17T06:22:53.311Z,69.27
2022-12-17T06:25:39.263Z,69.15
2022-12-17T06:28:26.209Z,69.38
2022-12-17T06:31:13.498Z,69.37
2022-12-17T06:33:59.586Z,69.32
2022-12-17T06:36:46.397Z,69.36
2022-12-17T06:39:33.937Z,69.20
2022-12-17T06:42:19.793Z,69.25
2022-12-17T06:45:07.082Z,69.14
2022-12-17T06:47:53.922Z,68.93
2022-12-17T06:50:39.985Z,69.08
2022-12-17T06:53:26.824Z,68.94
2022-12-17T06:56:16.606Z,68.79
2022-12-17T06:59:02.813Z,68.92
2022-12-17T07:01:48.743Z,68.77
2022-12-17T07:04:35.696Z,68.71
2022-12-17T07:07:21.770Z,68.77
2022-12-17T07:10:13.845Z,68.72
2022-12-17T07:13:01.786Z,68.79
2022-12-17T07:15:47.807Z,68.72
2022-12-17T07:18:34.015Z,68.78
2022-12-17T07:21:19.885Z,68.74
2022-12-17T07:24:11.729Z,68.63
2022-12-17T07:26:57.761Z,68.56
2022-12-17T07:29:45.533Z,68.64
2022-12-17T07:32:31.694Z,68.59
2022-12-17T07:35:18.276Z,68.47
2022-12-17T07:38:04.086Z,68.42
2022-12-17T07:40:50.105Z,68.31
2022-12-17T07:43:36.775Z,68.12
2022-12-17T07:46:24.115Z,68.00
2022-12-17T07:49:10.031Z,68.01
2022-12-17T07:51:56.385Z,67.84
2022-12-17T07:54:42.641Z,68.02
2022-12-17T07:57:28.484Z,67.79
2022-12-17T08:00:14.490Z,67.75
2022-12-17T08:03:01.936Z,67.55
2022-12-17T08:05:48.854Z,67.48
2022-12-17T08:08:34.560Z,67.40
2022-12-17T08:11:21.144Z,67.38
2022-12-17T08:14:07.377Z,67.30
2022-12-17T08:16:54.329Z,67.10
2022-12-17T08:19:41.540Z,67.33
2022-12-17T08:22:28.703Z,67.43
2022-12-17T08:25:14.918Z,67.02
2022-12-17T08:28:04.607Z,66.75
2022-12-17T08:30:57.880Z,66.54
2022-12-17T08:33:43.767Z,66.18
2022-12-17T08:36:31.185Z,65.82
2022-12-17T08:39:17.847Z,65.55
2022-12-17T08:42:04.695Z,65.26
2022-12-17T08:45:05.896Z,65.08
2022-12-17T08:47:52.159Z,64.48
2022-12-17T08:50:37.998Z,64.17
2022-12-17T08:53:25.767Z,63.81
2022-12-17T08:56:11.718Z,63.57
2022-12-17T08:58:59.399Z,63.20
2022-12-17T09:01:45.549Z,62.93
2022-12-17T09:04:32.265Z,62.72
2022-12-17T09:07:18.257Z,62.33
2022-12-17T09:10:06.033Z,62.24
2022-12-17T09:12:51.808Z,61.96
2022-12-17T09:15:43.718Z,61.65
2022-12-17T09:18:30.036Z,61.37
2022-12-17T09:21:16.527Z,60.94
2022-12-17T09:24:03.016Z,60.92
2022-12-17T09:26:50.669Z,60.38
2022-12-17T09:29:37.085Z,60.33
2022-12-17T09:32:24.471Z,59.97
2022-12-17T09:35:10.169Z,59.84
2022-12-17T09:37:56.894Z,59.48
2022-12-17T09:40:43.384Z,59.31
2022-12-17T09:43:42.326Z,59.27
2022-12-17T09:46:38.652Z,58.93
2022-12-17T09:49:34.722Z,58.61
2022-12-17T09:52:22.828Z,58.71
2022-12-17T09:55:10.954Z,58.46
2022-12-17T09:57:56.702Z,58.26
2022-12-17T10:00:47.351Z,58.21
2022-12-17T10:03:36.653Z,58.06
2022-12-17T10:06:29.336Z,57.98
2022-12-17T10:09:18.579Z,57.50
2022-12-17T10:12:05.600Z,57.22
2022-12-17T10:14:51.818Z,57.14
2022-12-17T10:17:41.345Z,56.58
2022-12-17T10:20:36.329Z,56.61
2022-12-17T10:23:22.888Z,56.47
2022-12-17T10:26:10.891Z,56.19
2022-12-17T10:28:57.864Z,55.93
2022-12-17T10:31:48.389Z,55.76
2022-12-17T10:34:38.849Z,55.30
2022-12-17T10:37:25.319Z,55.41
2022-12-17T10:40:14.641Z,55.04
2022-12-17T10:43:05.556Z,54.96
2022-12-17T10:45:53.591Z,54.50
2022-12-17T10:48:42.158Z,54.17
2022-12-17T10:51:40.596Z,53.59
2022-12-17T10:54:35.185Z,53.53
2022-12-17T10:57:29.835Z,53.00
2022-12-17T11:00:16.188Z,52.98
2022-12-17T11:03:07.512Z,52.52
2022-12-17T11:05:59.651Z,52.16
2022-12-17T11:08:45.814Z,51.78
2022-12-17T11:11:39.615Z,51.65
2022-12-17T11:14:31.308Z,51.50
2022-12-17T11:17:21.720Z,51.59
2022-12-17T11:20:13.593Z,51.26
2022-12-17T11:23:04.742Z,50.84
2022-12-17T11:26:01.328Z,50.21
2022-12-17T11:28:48.223Z,50.08
2022-12-17T11:31:58.201Z,49.88
2022-12-17T11:34:55.685Z,49.58
2022-12-17T11:37:47.680Z,49.07
2022-12-17T11:40:39.587Z,48.94
2022-12-17T11:43:38.188Z,48.75
2022-12-17T11:46:34.298Z,48.55
2022-12-17T11:49:28.393Z,48.51
2022-12-17T11:52:24.566Z,48.35
2022-12-17T11:55:19.772Z,47.79
2022-12-17T11:58:13.845Z,47.56
2022-12-17T12:01:14.340Z,47.30
2022-12-17T12:04:09.787Z,48.37
2022-12-17T12:07:07.609Z,47.84
2022-12-17T12:10:02.949Z,47.61
2022-12-17T12:13:00.438Z,47.13
2022-12-17T12:15:57.782Z,46.55
2022-12-17T12:19:04.989Z,46.32
2022-12-17T12:21:58.946Z,46.06
2022-12-17T12:25:08.458Z,45.87
2022-12-17T12:28:00.046Z,45.61
2022-12-17T12:30:52.662Z,45.30
2022-12-17T12:33:51.865Z,45.34
2022-12-17T12:36:39.963Z,45.11
2022-12-17T12:39:31.174Z,44.50
2022-12-17T12:42:21.676Z,44.67
2022-12-17T12:45:16.276Z,44.32
2022-12-17T12:48:13.711Z,44.20
2022-12-17T12:51:10.296Z,44.24
2022-12-17T12:53:56.914Z,43.97
2022-12-17T12:56:48.732Z,43.84
2022-12-17T12:59:45.052Z,43.70
2022-12-17T13:02:46.058Z,43.22
2022-12-17T13:05:34.754Z,43.36
2022-12-17T13:08:21.060Z,43.18
2022-12-17T13:11:28.160Z,43.26
2022-12-17T13:14:05.870Z,43.07
2022-12-17T13:16:43.281Z,42.94
2022-12-17T13:19:22.234Z,42.92
2022-12-17T13:21:51.934Z,42.74
2022-12-17T13:24:28.869Z,42.83
2022-12-17T13:26:58.343Z,42.60
2022-12-17T13:29:30.345Z,42.50
2022-12-17T13:32:13.746Z,42.61
2022-12-17T13:34:58.371Z,42.72
2022-12-17T13:37:36.665Z,42.28
2022-12-17T13:40:22.018Z,42.33
2022-12-17T13:42:50.575Z,42.21
2022-12-17T13:45:23.367Z,42.25
2022-12-17T13:47:55.909Z,43.56
2022-12-17T13:50:35.292Z,42.95
2022-12-17T13:53:11.758Z,42.99
2022-12-17T13:55:41.811Z,43.22
2022-12-17T13:58:23.584Z,43.21
2022-12-17T14:00:52.140Z,43.33
2022-12-17T14:03:42.860Z,43.45
2022-12-17T14:06:13.797Z,43.43
2022-12-17T14:08:43.989Z,43.56
2022-12-17T14:11:32.698Z,43.57
2022-12-17T14:14:02.449Z,43.39
2022-12-17T14:16:31.908Z,43.56
2022-12-17T14:19:01.207Z,43.70
2022-12-17T14:21:31.136Z,44.00
2022-12-17T14:23:59.774Z,44.08
2022-12-17T14:26:30.933Z,44.43
2022-12-17T14:28:59.754Z,44.41
2022-12-17T14:31:29.750Z,45.04
2022-12-17T14:34:08.193Z,44.99
2022-12-17T14:36:40.665Z,45.17
2022-12-17T14:39:19.840Z,45.56
2022-12-17T14:42:08.089Z,45.64
2022-12-17T14:44:39.294Z,46.05
2022-12-17T14:47:15.383Z,46.42
2022-12-17T14:49:55.756Z,46.80
2022-12-17T14:52:33.540Z,47.14
2022-12-17T14:55:02.212Z,47.63
2022-12-17T14:57:32.747Z,47.92
2022-12-17T15:00:01.153Z,48.23
2022-12-17T15:02:31.430Z,48.73
2022-12-17T15:05:04.290Z,49.03
2022-12-17T15:07:34.382Z,49.47
2022-12-17T15:10:11.685Z,49.63
2022-12-17T15:12:43.101Z,49.89
2022-12-17T15:15:14.974Z,50.13
2022-12-17T15:17:44.106Z,50.52
2022-12-17T15:20:18.917Z,50.70
2022-12-17T15:22:48.737Z,51.02
2022-12-17T15:25:22.738Z,51.36
2022-12-17T15:27:53.612Z,51.51
2022-12-17T15:30:24.077Z,51.36
2022-12-17T15:32:54.757Z,51.43
2022-12-17T15:35:23.161Z,51.76
2022-12-17T15:37:51.545Z,52.32
2022-12-17T15:40:29.638Z,52.44
2022-12-17T15:43:11.137Z,52.84
2022-12-17T15:45:40.640Z,52.93
2022-12-17T15:48:10.354Z,53.16
2022-12-17T15:50:38.981Z,53.40
2022-12-17T15:53:13.741Z,53.61
2022-12-17T15:55:44.435Z,53.83
2022-12-17T15:58:14.220Z,54.13
2022-12-17T16:00:43.530Z,54.20
2022-12-17T16:03:12.463Z,54.26
2022-12-17T16:05:43.740Z,54.42
2022-12-17T16:08:12.320Z,54.39
2022-12-17T16:10:41.711Z,54.61
2022-12-17T16:13:10.613Z,54.79
2022-12-17T16:15:40.403Z,54.85
2022-12-17T16:18:09.160Z,55.01
2022-12-17T16:20:37.984Z,55.17
2022-12-17T16:23:06.820Z,55.16
2022-12-17T16:25:35.215Z,55.22
2022-12-17T16:28:04.460Z,55.31
2022-12-17T16:30:32.848Z,55.44
2022-12-17T16:33:02.609Z,55.38
2022-12-17T16:35:31.774Z,55.22
2022-12-17T16:38:00.120Z,55.41
2022-12-17T16:40:29.597Z,55.76
2022-12-17T16:42:58.330Z,55.76
2022-12-17T16:45:30.609Z,55.93
2022-12-17T16:47:59.065Z,55.93
2022-12-17T16:50:32.415Z,56.16
2022-12-17T16:53:01.723Z,56.16
2022-12-17T16:55:30.051Z,56.39
2022-12-17T16:57:59.168Z,56.34
2022-12-17T17:00:27.686Z,56.40
2022-12-17T17:02:56.968Z,56.44
2022-12-17T17:05:25.452Z,56.42
2022-12-17T17:07:56.177Z,56.62
2022-12-17T17:10:24.967Z,56.59
2022-12-17T17:12:53.711Z,56.54
2022-12-17T17:15:23.764Z,56.40
2022-12-17T17:17:54.430Z,56.48
2022-12-17T17:20:25.516Z,56.46
2022-12-17T17:22:55.229Z,56.32
2022-12-17T17:25:43.876Z,56.79
2022-12-17T17:28:15.500Z,56.66
2022-12-17T17:30:44.653Z,56.47
2022-12-17T17:33:13.032Z,56.65
2022-12-17T17:35:41.978Z,56.48
2022-12-17T17:38:12.192Z,56.52
2022-12-17T17:40:40.602Z,56.68
2022-12-17T17:43:10.948Z,56.79
2022-12-17T17:45:40.461Z,56.77
2022-12-17T17:48:08.887Z,56.67
2022-12-17T17:50:38.888Z,56.77
2022-12-17T17:53:07.275Z,56.41
2022-12-17T17:55:37.958Z,56.35
2022-12-17T17:58:06.322Z,56.57
2022-12-17T18:00:35.520Z,56.52
2022-12-17T18:03:04.035Z,56.67
2022-12-17T18:05:41.628Z,56.47
2022-12-17T18:08:11.139Z,56.76
2022-12-17T18:10:41.460Z,56.44
2022-12-17T18:13:27.117Z,56.46
2022-12-17T18:16:01.578Z,56.44
2022-12-17T18:18:30.499Z,56.53
2022-12-17T18:21:04.776Z,56.48
2022-12-17T18:23:33.909Z,56.58
2022-12-17T18:26:08.591Z,56.73
2022-12-17T18:28:38.652Z,56.70
2022-12-17T18:31:09.837Z,56.73
2022-12-17T18:33:39.698Z,56.98
2022-12-17T18:36:13.773Z,57.09
2022-12-17T18:38:42.567Z,56.96
2022-12-17T18:41:32.666Z,56.82
2022-12-17T18:44:03.685Z,56.67
2022-12-17T18:46:33.930Z,56.70
2022-12-17T18:49:05.765Z,56.69
2022-12-17T18:51:35.579Z,56.73
2022-12-17T18:54:06.647Z,56.83
2022-12-17T18:57:00.578Z,56.84
2022-12-17T18:59:29.768Z,57.03
2022-12-17T19:01:59.215Z,56.99
2022-12-17T19:04:28.439Z,56.94
2022-12-17T19:06:56.957Z,56.92
2022-12-17T19:09:28.290Z,56.99
2022-12-17T19:12:01.829Z,56.94
2022-12-17T19:14:30.779Z,56.92
2022-12-17T19:16:59.518Z,57.03
2022-12-17T19:19:29.021Z,57.00
2022-12-17T19:22:00.288Z,56.97
2022-12-17T19:24:28.985Z,57.07
2022-12-17T19:26:59.703Z,57.20
2022-12-17T19:29:28.098Z,57.01
2022-12-17T19:31:57.391Z,57.23
2022-12-17T19:34:25.794Z,57.24
2022-12-17T19:36:54.927Z,57.60
2022-12-17T19:39:23.878Z,57.85
2022-12-17T19:41:52.483Z,57.61
2022-12-17T19:44:23.211Z,57.37
2022-12-17T19:46:52.151Z,57.49
2022-12-17T19:49:20.606Z,57.70
2022-12-17T19:51:49.861Z,57.85
2022-12-17T19:54:18.230Z,57.61
2022-12-17T19:56:47.321Z,57.52
2022-12-17T19:59:15.817Z,57.64
2022-12-17T20:01:49.188Z,57.88
2022-12-17T20:04:18.146Z,58.05
2022-12-17T20:06:47.701Z,58.23
2022-12-17T20:09:17.448Z,58.45
2022-12-17T20:11:47.772Z,58.50
2022-12-17T20:14:18.368Z,58.62
2022-12-17T20:16:50.358Z,58.84
2022-12-17T20:19:21.302Z,59.23
2022-12-17T20:21:50.291Z,59.49
2022-12-17T20:24:19.322Z,59.48
2022-12-17T20:26:50.170Z,59.38
2022-12-17T20:29:19.007Z,59.32
2022-12-17T20:31:50.037Z,59.54
2022-12-17T20:34:20.389Z,59.94
2022-12-17T20:36:49.338Z,60.17
2022-12-17T20:39:20.727Z,60.21
2022-12-17T20:41:52.734Z,60.46
2022-12-17T20:44:21.180Z,60.91
2022-12-17T20:46:51.753Z,61.09
2022-12-17T20:49:20.512Z,61.29
2022-12-17T20:51:48.879Z,61.50
2022-12-17T20:54:17.855Z,61.79
2022-12-17T20:56:46.523Z,61.93
2022-12-17T20:59:18.109Z,62.00
2022-12-17T21:01:52.842Z,62.14
2022-12-17T21:04:26.048Z,62.19
2022-12-17T21:06:54.700Z,62.30
2022-12-17T21:09:25.525Z,62.57
2022-12-17T21:11:54.536Z,62.74
2022-12-17T21:14:22.973Z,62.91
2022-12-17T21:16:52.139Z,63.10
2022-12-17T21:19:21.098Z,62.98
2022-12-17T21:21:51.107Z,63.15
2022-12-17T21:24:19.702Z,63.25
2022-12-17T21:26:48.235Z,63.25
2022-12-17T21:29:17.647Z,62.96
2022-12-17T21:31:48.360Z,63.27
2022-12-17T21:34:18.904Z,63.29
2022-12-17T21:36:47.845Z,63.30
2022-12-17T21:39:19.292Z,63.40
2022-12-17T21:42:08.535Z,63.47
2022-12-17T21:44:37.546Z,63.59
2022-12-17T21:47:06.759Z,63.58
2022-12-17T21:49:35.150Z,63.71
2022-12-17T21:52:04.441Z,63.69
2022-12-17T21:54:37.743Z,64.07
2022-12-17T21:57:06.498Z,64.35
2022-12-17T21:59:35.603Z,64.26
2022-12-17T22:02:04.056Z,64.37
2022-12-17T22:04:32.854Z,64.50
2022-12-17T22:07:02.476Z,64.49
2022-12-17T22:09:48.380Z,64.58
2022-12-17T22:12:41.049Z,64.64
2022-12-17T22:15:11.189Z,64.84
2022-12-17T22:17:41.925Z,64.97
2022-12-17T22:20:12.545Z,65.21
2022-12-17T22:22:40.931Z,65.42
2022-12-17T22:25:12.203Z,65.53
2022-12-17T22:27:43.302Z,65.74
2022-12-17T22:30:33.950Z,65.85
2022-12-17T22:33:13.402Z,66.13
2022-12-17T22:37:05.225Z,66.25
2022-12-17T22:42:41.477Z,66.46
2022-12-17T22:44:33.896Z,66.34
2022-12-17T22:44:53.544Z,66.27
2022-12-17T22:47:23.400Z,66.21
2022-12-17T22:49:52.961Z,66.30
2022-12-17T22:52:22.319Z,66.49
2022-12-17T22:54:51.668Z,66.59
2022-12-17T22:57:37.005Z,66.61
2022-12-17T23:00:17.057Z,66.93
2022-12-17T23:02:45.599Z,66.88
2022-12-17T23:05:14.708Z,67.24
2022-12-17T23:07:43.145Z,67.12
2022-12-17T23:10:12.550Z,66.99
2022-12-17T23:12:53.718Z,67.13
2022-12-17T23:15:30.484Z,67.25
2022-12-17T23:18:02.156Z,67.48
2022-12-17T23:20:32.944Z,67.61
2022-12-17T23:23:02.235Z,67.86
2022-12-17T23:25:32.394Z,67.74
2022-12-17T23:28:01.657Z,68.09
2022-12-17T23:30:31.860Z,68.10
2022-12-17T23:33:01.117Z,68.25
2022-12-17T23:35:29.531Z,68.31
2022-12-17T23:37:58.610Z,68.31
2022-12-17T23:40:27.934Z,68.33
2022-12-17T23:42:57.891Z,68.26
2022-12-17T23:45:26.360Z,68.39
2022-12-17T23:47:58.530Z,68.63
2022-12-17T23:50:27.523Z,68.48
2022-12-17T23:52:55.928Z,68.49
2022-12-17T23:55:24.849Z,68.57
2022-12-17T23:57:56.503Z,68.63
